createdAt,value
2022-08-27T00:02:18.985Z,20.00
2022-08-27T00:04:52.116Z,20.00
2022-08-27T00:07:20.739Z,20.00
2022-08-27T00:09:49.098Z,20.00
2022-08-27T00:12:17.516Z,20.00
2022-08-27T00:14:45.957Z,20.00
2022-08-27T00:17:14.645Z,20.00
2022-08-27T00:19:43.055Z,20.00
2022-08-27T00:22:13.505Z,20.00
2022-08-27T00:24:48.481Z,19.90
2022-08-27T00:27:17.724Z,19.90
2022-08-27T00:29:50.139Z,19.90
2022-08-27T00:32:19.323Z,19.80
2022-08-27T00:34:47.875Z,19.80
2022-08-27T00:37:17.767Z,19.80
2022-08-27T00:39:46.171Z,19.80
2022-08-27T00:42:14.727Z,19.80
2022-08-27T00:44:43.315Z,19.80
2022-08-27T00:47:16.295Z,19.80
2022-08-27T00:49:49.091Z,19.70
2022-08-27T00:52:23.848Z,19.70
2022-08-27T00:54:55.272Z,19.70
2022-08-27T00:57:23.907Z,19.70
2022-08-27T00:59:52.416Z,19.70
2022-08-27T01:02:21.143Z,19.70
2022-08-27T01:04:56.125Z,19.70
2022-08-27T01:07:28.596Z,19.70
2022-08-27T01:10:00.281Z,19.60
2022-08-27T01:12:31.529Z,19.70
2022-08-27T01:15:01.193Z,19.60
2022-08-27T01:17:33.256Z,19.60
2022-08-27T01:20:08.575Z,19.60
2022-08-27T01:22:53.354Z,19.60
2022-08-27T01:25:24.765Z,19.50
2022-08-27T01:27:54.076Z,19.50
2022-08-27T01:30:23.634Z,19.50
2022-08-27T01:32:52.558Z,19.50
2022-08-27T01:35:21.999Z,19.40
2022-08-27T01:37:52.559Z,19.40
2022-08-27T01:40:23.240Z,19.40
2022-08-27T01:42:54.827Z,19.40
2022-08-27T01:45:25.865Z,19.40
2022-08-27T01:47:54.353Z,19.40
2022-08-27T01:50:25.306Z,19.40
2022-08-27T01:52:54.492Z,19.40
2022-08-27T01:55:27.018Z,19.30
2022-08-27T01:57:56.379Z,19.30
2022-08-27T02:00:28.097Z,19.30
2022-08-27T02:02:56.765Z,19.30
2022-08-27T02:05:25.869Z,19.20
2022-08-27T02:07:54.315Z,19.20
2022-08-27T02:10:27.384Z,19.20
2022-08-27T02:12:55.906Z,19.20
2022-08-27T02:15:34.601Z,19.20
2022-08-27T02:18:03.860Z,19.20
2022-08-27T02:20:35.884Z,19.20
2022-08-27T02:23:06.315Z,19.10
2022-08-27T02:25:36.693Z,19.10
2022-08-27T02:28:07.093Z,19.10
2022-08-27T02:30:36.426Z,19.10
2022-08-27T02:33:05.925Z,19.10
2022-08-27T02:35:39.002Z,19.10
2022-08-27T02:38:08.015Z,19.00
2022-08-27T02:40:38.390Z,19.00
2022-08-27T02:43:06.954Z,19.00
2022-08-27T02:45:36.626Z,19.00
2022-08-27T02:48:05.859Z,19.00
2022-08-27T02:50:34.957Z,19.00
2022-08-27T02:53:04.051Z,19.00
2022-08-27T02:55:33.219Z,19.00
2022-08-27T02:58:03.302Z,19.00
2022-08-27T03:00:32.056Z,19.00
2022-08-27T03:03:00.567Z,19.00
2022-08-27T03:05:29.390Z,18.90
2022-08-27T03:08:00.078Z,18.90
2022-08-27T03:10:28.735Z,18.90
2022-08-27T03:12:57.647Z,18.90
2022-08-27T03:15:27.597Z,18.90
2022-08-27T03:18:13.328Z,18.90
2022-08-27T03:20:44.558Z,18.90
2022-08-27T03:23:14.715Z,18.80
2022-08-27T03:25:45.778Z,18.80
2022-08-27T03:28:23.198Z,18.80
2022-08-27T03:30:58.569Z,18.80
2022-08-27T03:34:02.138Z,18.80
2022-08-27T03:36:32.998Z,18.80
2022-08-27T03:39:01.430Z,18.80
2022-08-27T03:41:43.458Z,18.70
2022-08-27T03:44:21.983Z,18.70
2022-08-27T03:46:52.920Z,18.70
2022-08-27T03:49:22.801Z,18.70
2022-08-27T03:51:53.167Z,18.70
2022-08-27T03:54:21.707Z,18.70
2022-08-27T03:56:50.267Z,18.60
2022-08-27T03:59:19.014Z,18.60
2022-08-27T04:01:47.746Z,18.60
2022-08-27T04:04:17.593Z,18.60
2022-08-27T04:06:45.995Z,18.60
2022-08-27T04:09:14.428Z,18.60
2022-08-27T04:11:43.068Z,18.60
2022-08-27T04:14:19.850Z,18.60
2022-08-27T04:16:56.043Z,18.60
2022-08-27T04:19:28.492Z,18.60
2022-08-27T04:22:01.920Z,18.60
2022-08-27T04:24:31.966Z,18.60
2022-08-27T04:27:00.767Z,18.60
2022-08-27T04:29:29.785Z,18.60
2022-08-27T04:31:58.266Z,18.60
2022-08-27T04:34:28.154Z,18.60
2022-08-27T04:36:57.841Z,18.60
2022-08-27T04:39:27.256Z,18.60
2022-08-27T04:41:57.373Z,18.60
2022-08-27T04:44:26.557Z,18.60
2022-08-27T04:46:58.175Z,18.60
2022-08-27T04:49:29.143Z,18.60
2022-08-27T04:51:59.564Z,18.50
2022-08-27T04:54:32.837Z,18.50
2022-08-27T04:57:03.263Z,18.50
2022-08-27T04:59:32.344Z,18.50
2022-08-27T05:02:01.554Z,18.50
2022-08-27T05:04:36.816Z,18.50
2022-08-27T05:07:05.696Z,18.50
2022-08-27T05:09:34.669Z,18.50
2022-08-27T05:12:03.313Z,18.50
2022-08-27T05:14:32.788Z,18.50
2022-08-27T05:17:01.507Z,18.50
2022-08-27T05:19:30.075Z,18.50
2022-08-27T05:22:00.067Z,18.50
2022-08-27T05:24:28.416Z,18.50
2022-08-27T05:26:56.868Z,18.50
2022-08-27T05:29:25.309Z,18.50
2022-08-27T05:31:53.838Z,18.50
2022-08-27T05:34:25.386Z,18.50
2022-08-27T05:36:56.316Z,18.50
2022-08-27T05:39:26.088Z,18.50
2022-08-27T05:41:58.283Z,18.50
2022-08-27T05:44:42.495Z,18.50
2022-08-27T05:47:11.348Z,18.50
2022-08-27T05:49:40.084Z,18.50
2022-08-27T05:52:11.114Z,18.50
2022-08-27T05:54:41.087Z,18.50
2022-08-27T05:57:09.626Z,18.50
2022-08-27T05:59:55.408Z,18.60
2022-08-27T06:02:24.312Z,18.60
2022-08-27T06:04:53.745Z,18.60
2022-08-27T06:07:22.410Z,18.60
2022-08-27T06:09:52.210Z,18.60
2022-08-27T06:12:20.526Z,18.60
2022-08-27T06:14:57.636Z,18.60
2022-08-27T06:17:26.207Z,18.60
2022-08-27T06:19:54.694Z,18.50
2022-08-27T06:22:23.051Z,18.60
2022-08-27T06:24:52.972Z,18.60
2022-08-27T06:27:21.539Z,18.60
2022-08-27T06:29:49.898Z,18.60
2022-08-27T06:32:18.294Z,18.60
2022-08-27T06:34:47.450Z,18.70
2022-08-27T06:37:15.736Z,18.70
2022-08-27T06:39:44.027Z,18.80
2022-08-27T06:42:14.477Z,18.90
2022-08-27T06:44:43.003Z,18.90
2022-08-27T06:47:12.226Z,19.00
2022-08-27T06:49:41.386Z,19.00
2022-08-27T06:52:12.569Z,19.00
2022-08-27T06:54:41.175Z,19.10
2022-08-27T06:57:09.638Z,19.20
2022-08-27T06:59:39.998Z,19.20
2022-08-27T07:02:08.781Z,19.40
2022-08-27T07:04:37.256Z,19.50
2022-08-27T07:07:06.017Z,19.70
2022-08-27T07:09:36.063Z,19.70
2022-08-27T07:12:05.613Z,19.70
2022-08-27T07:14:38.005Z,19.70
2022-08-27T07:17:11.272Z,19.70
2022-08-27T07:19:45.468Z,19.60
2022-08-27T07:22:14.166Z,19.60
2022-08-27T07:24:42.960Z,19.70
2022-08-27T07:27:11.761Z,19.60
2022-08-27T07:29:40.582Z,19.70
2022-08-27T07:32:11.114Z,19.70
2022-08-27T07:34:39.537Z,19.70
2022-08-27T07:37:08.236Z,19.80
2022-08-27T07:39:36.999Z,19.80
2022-08-27T07:42:23.134Z,19.80
2022-08-27T07:44:51.673Z,19.80
2022-08-27T07:47:21.894Z,19.90
2022-08-27T07:49:52.383Z,19.80
2022-08-27T07:52:23.589Z,19.80
2022-08-27T07:54:54.777Z,19.90
2022-08-27T07:57:23.504Z,19.80
2022-08-27T07:59:53.254Z,19.70
2022-08-27T08:02:23.113Z,19.70
2022-08-27T08:04:51.705Z,19.70
2022-08-27T08:07:20.306Z,19.50
2022-08-27T08:09:48.840Z,19.40
2022-08-27T08:12:17.591Z,19.30
2022-08-27T08:14:57.926Z,19.10
2022-08-27T08:17:27.906Z,19.00
2022-08-27T08:20:18.605Z,18.90
2022-08-27T08:22:48.085Z,18.90
2022-08-27T08:25:16.819Z,18.80
2022-08-27T08:27:45.785Z,18.80
2022-08-27T08:30:14.484Z,18.70
2022-08-27T08:32:44.506Z,18.70
2022-08-27T08:35:13.103Z,18.70
2022-08-27T08:37:43.974Z,18.60
2022-08-27T08:40:22.448Z,18.60
2022-08-27T08:42:55.995Z,18.60
2022-08-27T08:45:29.104Z,18.60
2022-08-27T08:48:05.884Z,18.60
2022-08-27T08:50:40.456Z,18.50
2022-08-27T08:53:15.077Z,18.40
2022-08-27T08:55:49.286Z,18.40
2022-08-27T08:58:26.857Z,18.40
2022-08-27T09:00:59.700Z,18.40
2022-08-27T09:03:31.388Z,18.30
2022-08-27T09:06:04.330Z,18.30
2022-08-27T09:08:41.160Z,18.20
2022-08-27T09:11:20.153Z,18.20
2022-08-27T09:13:52.604Z,18.20
2022-08-27T09:16:21.740Z,18.20
2022-08-27T09:18:52.751Z,18.20
2022-08-27T09:21:32.253Z,18.20
2022-08-27T09:24:14.932Z,18.20
2022-08-27T09:26:45.384Z,18.30
2022-08-27T09:29:16.394Z,18.30
2022-08-27T09:31:46.921Z,18.20
2022-08-27T09:34:17.348Z,18.20
2022-08-27T09:37:00.081Z,18.20
2022-08-27T09:39:36.794Z,18.10
2022-08-27T09:42:06.295Z,18.20
2022-08-27T09:44:47.389Z,18.20
2022-08-27T09:47:18.735Z,18.20
2022-08-27T09:49:48.923Z,18.20
2022-08-27T09:52:32.092Z,18.20
2022-08-27T09:55:07.139Z,18.20
2022-08-27T09:57:41.332Z,18.20
2022-08-27T10:00:16.331Z,18.10
2022-08-27T10:02:52.834Z,18.10
2022-08-27T10:05:29.275Z,18.10
2022-08-27T10:08:02.155Z,18.10
2022-08-27T10:10:40.575Z,18.10
2022-08-27T10:13:15.385Z,18.00
2022-08-27T10:15:53.644Z,18.00
2022-08-27T10:18:28.852Z,18.00
2022-08-27T10:21:08.244Z,18.10
2022-08-27T10:23:43.967Z,18.10
2022-08-27T10:26:18.353Z,18.20
2022-08-27T10:29:01.517Z,18.20
2022-08-27T10:31:40.405Z,18.30
2022-08-27T10:34:26.010Z,18.30
2022-08-27T10:37:07.649Z,18.40
2022-08-27T10:39:51.583Z,18.50
2022-08-27T10:42:27.704Z,18.50
2022-08-27T10:45:04.845Z,18.60
2022-08-27T10:47:53.405Z,18.60
2022-08-27T10:50:29.980Z,18.60
2022-08-27T10:53:07.749Z,18.70
2022-08-27T10:55:42.512Z,18.70
2022-08-27T10:58:26.938Z,18.80
2022-08-27T11:01:03.179Z,18.80
2022-08-27T11:03:38.823Z,18.80
2022-08-27T11:06:22.014Z,18.80
2022-08-27T11:08:59.096Z,18.90
2022-08-27T11:14:30.406Z,19.00
2022-08-27T11:17:06.177Z,19.20
2022-08-27T11:19:44.475Z,19.30
2022-08-27T11:22:26.021Z,19.40
2022-08-27T11:25:01.696Z,19.50
2022-08-27T11:27:33.423Z,19.70
2022-08-27T11:30:07.067Z,19.80
2022-08-27T11:32:49.306Z,19.90
2022-08-27T11:35:24.202Z,20.10
2022-08-27T11:38:24.457Z,20.10
2022-08-27T11:41:10.295Z,20.30
2022-08-27T11:43:40.014Z,20.20
2022-08-27T11:46:10.492Z,20.40
2022-08-27T11:48:42.806Z,20.40
2022-08-27T11:51:18.879Z,20.60
2022-08-27T11:53:59.448Z,20.70
2022-08-27T11:56:40.680Z,20.80
2022-08-27T11:59:32.016Z,21.00
2022-08-27T12:02:14.022Z,21.10
2022-08-27T12:04:44.001Z,21.30
2022-08-27T12:07:34.987Z,21.40
2022-08-27T12:10:21.554Z,21.50
2022-08-27T12:13:02.714Z,21.50
2022-08-27T12:15:56.578Z,21.60
2022-08-27T12:18:49.988Z,21.60
2022-08-27T12:21:32.914Z,21.80
2022-08-27T12:24:18.672Z,21.90
2022-08-27T12:26:57.378Z,21.90
2022-08-27T12:29:31.614Z,22.10
2022-08-27T12:32:11.444Z,22.20
2022-08-27T12:34:48.546Z,22.20
2022-08-27T12:37:23.387Z,21.90
2022-08-27T12:39:55.768Z,21.90
2022-08-27T12:42:24.382Z,21.80
2022-08-27T12:44:57.626Z,21.70
2022-08-27T12:47:27.077Z,21.50
2022-08-27T12:49:58.616Z,21.50
2022-08-27T12:52:46.390Z,21.60
2022-08-27T12:55:24.189Z,21.80
2022-08-27T12:58:03.296Z,21.80
2022-08-27T13:00:39.901Z,21.90
2022-08-27T13:03:22.684Z,22.00
2022-08-27T13:05:56.877Z,22.10
2022-08-27T13:08:28.612Z,22.20
2022-08-27T13:10:57.867Z,22.10
2022-08-27T13:13:27.458Z,22.10
2022-08-27T13:16:02.437Z,22.30
2022-08-27T13:18:31.656Z,22.50
2022-08-27T13:21:05.870Z,22.40
2022-08-27T13:23:35.489Z,22.60
2022-08-27T13:26:09.396Z,22.70
2022-08-27T13:28:41.338Z,22.80
2022-08-27T13:31:12.325Z,22.80
2022-08-27T13:33:42.424Z,22.90
2022-08-27T13:36:11.626Z,23.00
2022-08-27T13:38:47.859Z,23.10
2022-08-27T13:41:25.395Z,23.00
2022-08-27T13:43:59.057Z,23.00
2022-08-27T13:46:32.268Z,22.90
2022-08-27T13:49:01.997Z,22.90
2022-08-27T13:51:33.995Z,22.80
2022-08-27T13:54:14.623Z,22.80
2022-08-27T13:57:03.770Z,22.80
2022-08-27T13:59:33.456Z,22.80
2022-08-27T14:02:06.835Z,22.70
2022-08-27T14:04:42.356Z,22.50
2022-08-27T14:07:15.815Z,22.40
2022-08-27T14:09:54.529Z,22.40
2022-08-27T14:12:32.772Z,22.40
2022-08-27T14:15:17.288Z,22.40
2022-08-27T14:17:48.443Z,22.20
2022-08-27T14:20:20.405Z,22.00
2022-08-27T14:22:50.404Z,22.00
2022-08-27T14:25:22.740Z,22.00
2022-08-27T14:27:54.215Z,22.10
2022-08-27T14:30:30.071Z,22.10
2022-08-27T14:33:01.419Z,22.10
2022-08-27T14:35:31.896Z,22.10
2022-08-27T14:38:09.807Z,22.10
2022-08-27T14:40:38.430Z,22.10
2022-08-27T14:43:07.854Z,22.10
2022-08-27T14:45:37.598Z,22.10
2022-08-27T14:48:18.249Z,22.00
2022-08-27T14:50:48.147Z,22.00
2022-08-27T14:53:17.505Z,22.10
2022-08-27T14:55:51.356Z,22.20
2022-08-27T14:58:20.578Z,22.20
2022-08-27T15:00:52.283Z,22.30
2022-08-27T15:03:25.656Z,22.30
2022-08-27T15:05:56.515Z,22.40
2022-08-27T15:08:29.488Z,22.50
2022-08-27T15:11:01.996Z,22.50
2022-08-27T15:13:32.282Z,22.50
2022-08-27T15:16:01.327Z,22.50
2022-08-27T15:18:32.334Z,22.50
2022-08-27T15:21:02.205Z,22.50
2022-08-27T15:23:30.836Z,22.40
2022-08-27T15:26:00.005Z,22.40
2022-08-27T15:28:28.656Z,22.40
2022-08-27T15:30:57.345Z,22.30
2022-08-27T15:33:25.874Z,22.30
2022-08-27T15:35:55.708Z,22.30
2022-08-27T15:38:24.176Z,22.30
2022-08-27T15:40:52.717Z,22.30
2022-08-27T15:43:21.805Z,22.30
2022-08-27T15:45:50.285Z,22.20
2022-08-27T15:48:18.835Z,22.20
2022-08-27T15:50:47.444Z,22.20
2022-08-27T15:53:18.885Z,22.30
2022-08-27T15:55:48.285Z,22.30
2022-08-27T15:58:17.416Z,22.30
2022-08-27T16:00:48.251Z,22.40
2022-08-27T16:03:37.798Z,22.40
2022-08-27T16:06:08.183Z,22.40
2022-08-27T16:08:41.881Z,22.30
2022-08-27T16:11:11.125Z,22.30
2022-08-27T16:13:39.764Z,22.30
2022-08-27T16:16:09.394Z,22.20
2022-08-27T16:18:38.934Z,22.20
2022-08-27T16:21:07.770Z,22.10
2022-08-27T16:23:37.825Z,22.00
2022-08-27T16:26:06.460Z,22.00
2022-08-27T16:28:35.175Z,22.00
2022-08-27T16:31:04.088Z,22.00
2022-08-27T16:33:32.884Z,21.90
2022-08-27T16:36:02.085Z,21.80
2022-08-27T16:38:30.745Z,21.80
2022-08-27T16:41:00.883Z,21.80
2022-08-27T16:43:30.000Z,21.80
2022-08-27T16:46:01.227Z,21.70
2022-08-27T16:49:01.493Z,21.70
2022-08-27T16:51:34.670Z,21.70
2022-08-27T16:54:04.865Z,21.60
2022-08-27T16:56:37.657Z,21.60
2022-08-27T16:59:06.886Z,21.50
2022-08-27T17:01:35.960Z,21.50
2022-08-27T17:04:16.029Z,21.50
2022-08-27T17:06:45.698Z,21.40
2022-08-27T17:09:15.694Z,21.40
2022-08-27T17:11:51.642Z,21.40
2022-08-27T17:14:20.517Z,21.30
2022-08-27T17:16:50.240Z,21.30
2022-08-27T17:19:19.276Z,21.30
2022-08-27T17:21:48.114Z,21.30
2022-08-27T17:24:16.813Z,21.20
2022-08-27T17:26:46.833Z,21.20
2022-08-27T17:29:15.598Z,21.20
2022-08-27T17:31:44.820Z,21.20
2022-08-27T17:34:17.945Z,21.10
2022-08-27T17:36:46.953Z,21.10
2022-08-27T17:39:16.111Z,21.00
2022-08-27T17:41:48.461Z,21.00
2022-08-27T17:44:22.894Z,21.00
2022-08-27T17:46:52.567Z,20.90
2022-08-27T17:49:21.502Z,20.90
2022-08-27T17:51:51.653Z,20.80
2022-08-27T17:54:28.250Z,20.80
2022-08-27T17:56:58.525Z,20.70
2022-08-27T17:59:27.224Z,20.70
2022-08-27T18:01:56.698Z,20.70
2022-08-27T18:04:26.415Z,20.70
2022-08-27T18:06:55.177Z,20.70
2022-08-27T18:09:23.754Z,20.70
2022-08-27T18:11:53.179Z,20.60
2022-08-27T18:14:26.723Z,20.60
2022-08-27T18:16:55.294Z,20.60
2022-08-27T18:19:24.089Z,20.50
2022-08-27T18:21:52.655Z,20.40
2022-08-27T18:24:21.689Z,20.40
2022-08-27T18:26:50.656Z,20.40
2022-08-27T18:29:20.034Z,20.40
2022-08-27T18:31:50.333Z,20.30
2022-08-27T18:34:20.961Z,20.30
2022-08-27T18:36:49.704Z,20.20
2022-08-27T18:39:19.264Z,20.20
2022-08-27T18:41:48.104Z,20.10
2022-08-27T18:44:17.663Z,20.10
2022-08-27T18:46:47.245Z,20.10
2022-08-27T18:49:17.233Z,20.10
2022-08-27T18:51:49.362Z,20.10
2022-08-27T18:54:21.652Z,20.00
2022-08-27T18:56:50.235Z,20.00
2022-08-27T18:59:18.875Z,20.00
2022-08-27T19:01:48.241Z,19.90
2022-08-27T19:04:19.096Z,19.90
2022-08-27T19:06:48.345Z,19.90
2022-08-27T19:09:16.923Z,19.90
2022-08-27T19:11:45.572Z,19.80
2022-08-27T19:14:14.156Z,19.80
2022-08-27T19:16:45.497Z,19.80
2022-08-27T19:19:15.944Z,19.80
2022-08-27T19:21:51.259Z,19.70
2022-08-27T19:24:20.403Z,19.70
2022-08-27T19:26:49.604Z,19.70
2022-08-27T19:29:18.144Z,19.70
2022-08-27T19:31:48.330Z,19.70
2022-08-27T19:34:17.313Z,19.70
2022-08-27T19:36:47.167Z,19.70
2022-08-27T19:39:15.694Z,19.70
2022-08-27T19:41:44.312Z,19.70
2022-08-27T19:44:12.716Z,19.70
2022-08-27T19:46:41.597Z,19.60
2022-08-27T19:49:10.075Z,19.60
2022-08-27T19:51:38.501Z,19.50
2022-08-27T19:54:08.382Z,19.50
2022-08-27T19:56:37.304Z,19.40
2022-08-27T19:59:17.906Z,19.40
2022-08-27T20:01:50.190Z,19.40
2022-08-27T20:04:19.305Z,19.40
2022-08-27T20:06:48.232Z,19.30
2022-08-27T20:09:18.618Z,19.30
2022-08-27T20:11:49.566Z,19.20
2022-08-27T20:14:18.667Z,19.20
2022-08-27T20:16:48.261Z,19.20
2022-08-27T20:19:16.981Z,19.10
2022-08-27T20:21:46.264Z,19.10
2022-08-27T20:24:14.941Z,19.00
2022-08-27T20:26:44.983Z,18.90
2022-08-27T20:29:19.074Z,18.90
2022-08-27T20:32:01.599Z,18.80
2022-08-27T20:34:32.582Z,18.80
2022-08-27T20:37:03.122Z,18.70
2022-08-27T20:39:31.760Z,18.70
2022-08-27T20:42:01.792Z,18.60
2022-08-27T20:44:31.582Z,18.60
2022-08-27T20:47:02.633Z,18.50
2022-08-27T20:49:31.643Z,18.50
2022-08-27T20:52:03.976Z,18.40
2022-08-27T20:54:34.998Z,18.40
2022-08-27T20:57:06.067Z,18.30
2022-08-27T20:59:52.066Z,18.20
2022-08-27T21:02:24.525Z,18.10
2022-08-27T21:04:53.843Z,18.10
2022-08-27T21:07:23.893Z,18.00
2022-08-27T21:09:56.177Z,18.00
2022-08-27T21:12:27.716Z,17.90
2022-08-27T21:14:58.055Z,17.90
2022-08-27T21:17:28.916Z,17.80
2022-08-27T21:19:57.555Z,17.80
2022-08-27T21:22:26.646Z,17.70
2022-08-27T21:24:56.304Z,17.70
2022-08-27T21:27:26.124Z,17.60
2022-08-27T21:29:54.928Z,17.60
2022-08-27T21:32:23.672Z,17.50
2022-08-27T21:34:52.694Z,17.40
2022-08-27T21:37:21.315Z,17.40
2022-08-27T21:39:49.856Z,17.30
2022-08-27T21:42:18.483Z,17.30
2022-08-27T21:44:48.393Z,17.20
2022-08-27T21:47:16.943Z,17.20
2022-08-27T21:49:45.545Z,17.10
2022-08-27T21:52:13.983Z,17.00
2022-08-27T21:54:43.435Z,17.00
2022-08-27T21:57:15.595Z,16.90
2022-08-27T21:59:48.523Z,16.90
2022-08-27T22:02:38.734Z,16.80
2022-08-27T22:05:08.070Z,16.80
2022-08-27T22:07:36.666Z,16.70
2022-08-27T22:10:07.064Z,16.60
2022-08-27T22:12:35.534Z,16.60
2022-08-27T22:15:07.264Z,16.60
2022-08-27T22:17:35.923Z,16.50
2022-08-27T22:20:07.962Z,16.50
2022-08-27T22:22:36.519Z,16.50
2022-08-27T22:25:05.464Z,16.50
2022-08-27T22:27:34.046Z,16.40
2022-08-27T22:30:02.790Z,16.40
2022-08-27T22:32:32.899Z,16.40
2022-08-27T22:35:01.388Z,16.40
2022-08-27T22:37:30.125Z,16.40
2022-08-27T22:39:58.854Z,16.40
2022-08-27T22:42:28.375Z,16.30
2022-08-27T22:44:57.582Z,16.30
2022-08-27T22:47:26.146Z,16.30
2022-08-27T22:49:57.753Z,16.20
2022-08-27T22:52:28.123Z,16.20
2022-08-27T22:54:57.356Z,16.10
2022-08-27T22:57:26.075Z,16.10
2022-08-27T22:59:55.799Z,16.10
2022-08-27T23:02:24.352Z,16.10
2022-08-27T23:04:55.843Z,16.00
2022-08-27T23:07:26.394Z,16.00
2022-08-27T23:09:55.004Z,15.90
2022-08-27T23:12:24.327Z,15.80
2022-08-27T23:14:53.005Z,15.80
2022-08-27T23:17:21.543Z,15.70
2022-08-27T23:19:50.373Z,15.70
2022-08-27T23:22:18.782Z,15.60
2022-08-27T23:25:05.974Z,15.60
2022-08-27T23:27:34.554Z,15.50
2022-08-27T23:30:05.335Z,15.40
2022-08-27T23:32:33.806Z,15.40
2022-08-27T23:35:03.074Z,15.40
2022-08-27T23:37:32.015Z,15.30
2022-08-27T23:40:01.990Z,15.30
2022-08-27T23:42:30.620Z,15.20
2022-08-27T23:44:59.086Z,15.10
2022-08-27T23:47:27.415Z,15.10
2022-08-27T23:49:55.712Z,15.00
2022-08-27T23:52:24.364Z,15.00
2022-08-27T23:54:52.787Z,14.90
2022-08-27T23:57:22.591Z,14.90
2022-08-27T23:59:51.033Z,14.80
